Weather observations for the past three days for
Springfield, Comanche National Grassland
Metric (Imperial)
Date Time (mdt) Wind (kph) Vis. (km) Weather Sky Cond. Temperature (ºC) Relative Humidity Wind Chill (°C) Heat Index (°C) Pressure Precipitation (cm)
Air Dwpt 6 hour altimeter (cm) sea level (mb) 1 hr 3 hr 6 hr
Max. Min.
03 11:56 Vrbl 7 0.00 NULL NULL 25.6 -7.8 27.8 5.6 10% 25 76.1 1010.0
03 10:56 Vrbl 6 G 28 0.00 NULL NULL 24.4 -6.1 13% 24 76.17 1010.9
03 09:56 SW 11 0.00 NULL NULL 23.3 -5.6 14% 76.23 1011.5
03 08:56 W 11 0.00 NULL NULL 21.1 1.1 27% 76.25 1012.1
03 07:56 SW 20 G 33 0.00 NULL NULL 15.6 2.8 42% 76.28 1012.5
03 06:56 SW 19 0.00 NULL NULL 9.4 2.2 61% 7 76.28 1012.7
03 05:56 SW 19 0.00 NULL NULL 5.6 0.6 6.1 3.3 71% 2 76.25 1012.8
03 04:56 SW 19 0.00 NULL NULL 3.3 -0.6 76% -1 76.28 1013.2
03 03:56 SW 15 0.00 NULL NULL 5 0 70% 2 76.3 1013.5
03 02:56 SW 19 0.00 NULL NULL 5 -0.6 67% 2 76.33 1014.1
03 01:56 SW 15 0.00 NULL NULL 4.4 -0.6 70% 1 76.38 1014.5
02 23:56 SW 17 0.00 NULL NULL 5.6 -0.6 21.1 5 65% 3 76.43 1015.5
02 22:56 SW 11 0.00 NULL NULL 7.2 -0.6 58% 5 76.45 1015.8
02 21:56 S 19 0.00 NULL NULL 8.9 0 54% 6 76.45 1015.4
02 20:56 S 15 0.00 NULL NULL 10.6 -0.6 46% 76.43 1015.3
02 19:56 S 13 0.00 NULL NULL 14.4 -2.2 32% 76.4 1014.8
02 18:56 S 9 0.00 NULL NULL 20 -3.9 20% 76.38 1014.4
02 17:56 S 17 0.00 NULL NULL 21.7 -5 22.8 18.3 16% 76.38 1014.8
02 16:56 Vrbl 9 0.00 NULL NULL 22.8 -5 15% 76.4 1014.9
02 15:56 SW 15 G 31 0.00 NULL NULL 22.2 -4.4 17% 76.43 1015.4
02 14:56 Vrbl 7 0.00 NULL NULL 20.6 -5 17% 76.53 1016.7
02 13:56 Vrbl 11 0.00 NULL NULL 21.7 -5 16% 76.56 1017.3
02 12:56 NW 11 0.00 NULL NULL 19.4 -4.4 20% 76.61 1018.1
02 11:56 S 9 0.00 NULL NULL 19.4 -2.8 20 3.3 22% 76.66 1018.6
02 10:56 Vrbl 7 0.00 NULL NULL 17.8 -5 21% 76.68 1019.1
02 09:56 NW 19 0.00 NULL NULL 18.3 1.7 33% 76.68 1019.0
02 08:56 NW 19 0.00 NULL NULL 16.1 2.8 41% 76.66 1019.0
02 07:56 NW 20 0.00 NULL NULL 11.7 3.3 57% 76.63 1019.2
02 06:56 W 17 0.00 NULL NULL 7.2 2.8 74% 5 76.61 1018.9
02 05:56 W 17 0.00 NULL NULL 3.3 0.6 6.7 3.3 83% -0 76.58 1019.0
02 04:56 W 17 0.00 NULL NULL 3.9 0.6 79% 0 76.58 1019.1
02 03:56 W 19 0.00 NULL NULL 4.4 1.7 83% 1 76.56 1018.9
02 02:56 NW 19 0.00 NULL NULL 4.4 1.7 83% 1 76.56 1018.9
02 01:56 Calm 0.00 NULL NULL 3.3 1.1 86% 76.56 1018.9
02 00:56 W 11 0.00 NULL NULL 5 2.8 86% 3 76.58 1019.1
01 23:56 W 15 0.00 NULL NULL 6.1 3.3 12.8 5.6 82% 3 76.56 1018.7
01 22:56 W 19 0.00 NULL NULL 6.7 3.3 79% 4 76.56 1018.7
01 21:56 SW 17 0.00 NULL NULL 6.1 3.9 86% 3 76.56 1018.8
01 20:56 SW 19 0.00 NULL NULL 7.2 4.4 83% 4 76.53 1018.5
01 19:56 SW 9 0.00 NULL NULL 8.3 5 80% 7 76.48 1017.8
01 18:56 SW 19 0.00 NULL NULL 11.1 5 66% 76.45 1017.1
01 17:56 SW 15 0.00 NULL NULL 12.8 4.4 13.3 8.3 57% 76.45 1016.9 0.1
01 16:56 SW 15 0.00 NULL NULL 11.7 5.6 66% 76.45 1017.1
01 15:56 S 9 0.00 NULL NULL 10.6 4.4 66% 76.48 1017.5
01 14:56 Calm 0.00 NULL NULL 10 5 71% 76.53 1018.3 0.1 0.1
01 13:56 Calm 0.00 NULL NULL 11.7 3.3 57% 76.56 1018.3
01 12:56 Vrbl 9 0.00 NULL NULL 10 5 71% 9 76.61 1019.2
01 11:56 Calm 0.00 NULL NULL 8.9 4.4 8.9 6.1 74% 76.63 1020.0 0.15
01 10:56 SW 7 0.00 NULL NULL 8.3 4.4 77% 7 76.66 1020.4
01 09:56 W 13 0.00 NULL NULL 7.8 5 83% 6 76.63 1020.0
01 08:56 SW 9 0.00 NULL NULL 6.7 4.4 85% 5 76.61 1019.9 0.03 0.15
01 07:56 S 7 0.00 NULL NULL 6.7 5 89% 6 76.61 1019.9 0.08
01 06:56 S 9 0.00 NULL NULL 6.1 5 93% 4 76.58 1019.6 0.05
01 05:56 Calm 0.00 NULL NULL 6.1 5 6.1 6.1 93% 76.56 1019.0 0.1 0.41
01 04:56 Calm 0.00 NULL NULL 6.1 5 93% 76.53 1018.4 0.08
01 03:56 N 6 0.00 NULL NULL 6.1 5 93% 76.56 1018.4 0.13
01 02:56 Calm 0.00 NULL NULL 6.1 5.6 97% 76.56 1018.3 0.08 0.1
01 01:56 N 11 0.00 NULL NULL 6.1 5 93% 4 76.58 1018.5 0.03
01 00:56 N 13 0.00 NULL NULL 6.1 5 93% 4 76.61 1018.6
30 23:56 N 13 0.00 NULL NULL 6.1 5 7.2 5.6 93% 4 76.58 1018.6 0.05
30 22:56 N 9 0.00 NULL NULL 6.1 4.4 89% 4 76.58 1018.8
30 21:56 N 22 0.00 NULL NULL 5.6 4.4 92% 2 76.58 1018.5 0.03
30 20:56 N 20 0.00 NULL NULL 5.6 4.4 92% 2 76.53 1018.3 0.03 0.03
30 19:56 N 22 0.00 NULL NULL 5.6 4.4 92% 2 76.48 1018.0
30 18:56 N 24 0.00 NULL NULL 6.1 4.4 89% 2 76.45 1017.4
30 17:56 N 30 0.00 NULL NULL 7.2 4.4 13.9 7.2 83% 3 76.4 1016.8 0.03 0.03
30 16:56 NE 35 0.00 Breezy NULL 10.6 3.3 61% 76.35 1015.3
30 15:56 NE 33 G 44 0.00 Breezy NULL 11.7 3.3 57% 76.33 1014.7
30 14:56 NE 26 G 48 0.00 NULL NULL 12.2 2.8 53% 76.35 1015.0
30 13:56 Calm 0.00 NULL NULL 12.8 -1.1 38% 76.35 1014.9
30 12:56 S 7 0.00 NULL NULL 13.3 -1.7 36% 76.38 1015.2
Date Time (mdt) Wind (kph) Vis. (km) Weather Sky Cond. Air Dwpt Max. Min. Relative Humidity Wind Chill (°C) Heat Index (°C) altimeter (cm) sea level (mb) 1 hr 3 hr 6 hr
6 hour
Temperature (ºC) Pressure Precipitation (cm)